Time;durP1;ratioP1;P1;durP2;ratioP2;P2;SDS_P1;SDS_P2;PMS_P1;PMS_P2;Temp;Humidity;BMP_temperature;BMP_pressure;BME280_temperature;BME280_humidity;BME280_pressure;Samples;Min_cycle;Max_cycle;Signal;HPM_P1;HPM_P2
2022/10/17 00:00:52;;;;;;;3.05;1.33;;;;;;;10.89;87.95;101699.81;10537696;28;20089;-66
2022/10/17 00:05:52;;;;;;;3.28;1.45;;;;;;;10.97;88.24;101715.91;10537347;28;20077;-66
2022/10/17 00:11:05;;;;;;;3.45;1.55;;;;;;;10.95;88.26;101711.75;10537272;28;20040;-67
2022/10/17 00:16:07;;;;;;;3.60;1.13;;;;;;;10.74;88.28;101671.97;10536978;28;20047;-66
2022/10/17 00:21:15;;;;;;;4.82;1.65;;;;;;;11.04;86.94;101720.69;10537043;28;20040;-67
2022/10/17 00:26:16;;;;;;;2.67;1.20;;;;;;;11.02;87.41;101720.00;10537849;28;20055;-66
2022/10/17 00:31:19;;;;;;;4.85;1.35;;;;;;;10.97;87.30;101702.63;10536876;28;20032;-66
2022/10/17 00:36:22;;;;;;;3.55;1.40;;;;;;;11.07;86.75;101729.25;10537445;28;20040;-67
2022/10/17 00:41:27;;;;;;;3.67;1.42;;;;;;;11.01;86.63;101737.78;10536823;28;20499;-66
2022/10/17 00:46:46;;;;;;;2.67;1.30;;;;;;;11.02;86.39;101728.81;10537302;28;20488;-67
2022/10/17 00:51:53;;;;;;;6.93;1.55;;;;;;;10.48;86.32;101650.34;10537163;28;20043;-67
2022/10/17 00:56:54;;;;;;;4.55;1.40;;;;;;;10.89;87.01;101717.59;10537248;28;20039;-66
2022/10/17 01:02:17;;;;;;;3.08;1.30;;;;;;;11.03;86.82;101737.63;10537543;28;20044;-66
2022/10/17 01:07:18;;;;;;;5.40;1.40;;;;;;;11.00;86.95;101740.56;10545011;28;20052;-66
2022/10/17 01:12:21;;;;;;;8.13;1.50;;;;;;;10.99;86.71;101736.22;10544663;28;20044;-66
2022/10/17 01:17:41;;;;;;;2.45;1.30;;;;;;;11.00;86.65;101744.06;10543808;28;20040;-67
2022/10/17 01:23:12;;;;;;;3.92;1.30;;;;;;;11.00;86.98;101748.53;10542863;28;20040;-66
2022/10/17 01:28:46;;;;;;;4.85;1.40;;;;;;;10.47;86.33;101677.91;10544577;28;20579;-67
2022/10/17 01:34:04;;;;;;;4.47;1.65;;;;;;;10.96;87.20;101774.56;10543371;28;20504;-67
2022/10/17 01:39:20;;;;;;;6.07;1.30;;;;;;;10.95;87.31;101768.41;10543115;28;20051;-66
2022/10/17 01:44:24;;;;;;;2.40;1.20;;;;;;;10.96;87.20;101767.41;10543625;28;20040;-67
2022/10/17 01:49:27;;;;;;;;;;;;;;;11.06;86.88;101777.25;10543443;28;20043;-66
2022/10/17 01:54:52;;;;;;;4.70;1.40;;;;;;;10.97;87.07;101782.38;10542849;28;19923;-66
2022/10/17 01:59:55;;;;;;;2.85;1.50;;;;;;;10.92;87.49;101787.28;10543351;28;20048;-66
2022/10/17 02:04:56;;;;;;;3.15;1.50;;;;;;;10.88;87.16;101785.84;10542707;28;20060;-66
2022/10/17 02:09:57;;;;;;;3.70;1.30;;;;;;;10.28;87.25;101700.72;10542409;28;20044;-66
2022/10/17 02:15:13;;;;;;;7.90;1.33;;;;;;;10.79;87.86;101788.47;10541450;28;20032;-66
2022/10/17 02:20:26;;;;;;;3.00;1.30;;;;;;;10.84;87.65;101792.44;10540958;28;20043;-66
2022/10/17 02:25:37;;;;;;;3.20;1.27;;;;;;;10.74;88.02;101796.88;10541880;28;20036;-66
2022/10/17 02:30:57;;;;;;;7.22;1.55;;;;;;;10.58;88.03;101791.19;10541725;28;20044;-66
2022/10/17 02:36:05;;;;;;;4.45;1.40;;;;;;;10.61;88.30;101797.06;10539968;28;20040;-66
2022/10/17 02:41:09;;;;;;;2.67;1.33;;;;;;;10.52;88.56;101782.78;10541065;28;20070;-67
2022/10/17 02:46:11;;;;;;;;;;;;;;;10.77;87.80;101814.34;10541009;28;20079;-67
2022/10/17 02:51:41;;;;;;;3.88;1.25;;;;;;;10.64;88.93;101830.53;10540180;28;19920;-66
2022/10/17 02:56:58;;;;;;;3.53;1.50;;;;;;;10.55;88.87;101821.53;10539486;28;20044;-66
2022/10/17 03:02:05;;;;;;;6.43;2.20;;;;;;;10.36;89.37;101802.84;10539740;28;20046;-68
2022/10/17 03:07:06;;;;;;;2.58;1.50;;;;;;;10.51;89.09;101817.47;10538915;28;20139;-66
2022/10/17 03:12:06;;;;;;;10.48;2.03;;;;;;;10.48;89.55;101807.94;10539635;28;20377;-66
2022/10/17 03:17:07;;;;;;;5.25;1.83;;;;;;;10.43;89.86;101826.06;10539761;28;20408;-66
2022/10/17 03:22:08;;;;;;;9.88;2.10;;;;;;;10.33;90.36;101809.25;10538911;28;20040;-67
2022/10/17 03:27:09;;;;;;;9.90;2.47;;;;;;;10.31;91.02;101808.53;10535763;28;20044;-67
2022/10/17 03:32:10;;;;;;;6.35;2.17;;;;;;;9.97;91.35;101768.88;10532143;28;20048;-67
2022/10/17 03:37:10;;;;;;;5.85;2.20;;;;;;;10.13;92.24;101808.22;10536314;28;20222;-66
2022/10/17 03:42:11;;;;;;;3.38;1.90;;;;;;;10.17;93.38;101825.59;10539363;28;20076;-67
2022/10/17 03:47:12;;;;;;;4.65;1.92;;;;;;;9.65;94.06;101746.81;10538369;28;20119;-66
2022/10/17 03:52:13;;;;;;;7.15;2.25;;;;;;;9.99;95.43;101808.53;10537868;28;20082;-66
2022/10/17 03:57:14;;;;;;;8.07;2.17;;;;;;;9.68;95.73;101767.81;10537684;28;20043;-66
2022/10/17 04:02:15;;;;;;;18.08;2.30;;;;;;;9.59;96.02;101756.13;10534903;28;20495;-66
2022/10/17 04:07:16;;;;;;;8.63;2.78;;;;;;;10.05;97.52;101850.50;10534667;28;20068;-67
2022/10/17 04:12:17;;;;;;;4.03;2.33;;;;;;;10.02;98.69;101842.78;10537788;28;20043;-64
2022/10/17 04:17:18;;;;;;;4.95;2.65;;;;;;;9.94;99.82;101846.09;10536058;28;20047;-64
2022/10/17 04:22:18;;;;;;;8.35;2.65;;;;;;;9.90;100.00;101850.00;10538045;28;20587;-66
2022/10/17 04:27:19;;;;;;;7.03;2.53;;;;;;;9.69;100.00;101809.28;10536729;28;20495;-65
2022/10/17 04:32:20;;;;;;;3.80;2.50;;;;;;;9.36;100.00;101765.97;10536605;28;20092;-66
2022/10/17 04:37:21;;;;;;;6.15;2.63;;;;;;;10.03;100.00;101860.44;10536880;28;20560;-67
2022/10/17 04:42:22;;;;;;;11.15;3.53;;;;;;;10.11;100.00;101868.63;10545829;28;20048;-67
2022/10/17 04:47:22;;;;;;;8.55;2.85;;;;;;;9.66;100.00;101780.34;10539768;28;20044;-66
2022/10/17 04:52:24;;;;;;;7.40;3.05;;;;;;;10.20;100.00;101867.84;10544044;28;20133;-66
2022/10/17 04:57:25;;;;;;;6.07;3.15;;;;;;;10.24;100.00;101863.94;10544747;28;20044;-67
2022/10/17 05:02:26;;;;;;;12.82;3.35;;;;;;;10.20;100.00;101873.16;10544736;28;20047;-67
2022/10/17 05:07:26;;;;;;;6.60;3.22;;;;;;;10.22;100.00;101871.19;10545159;28;20114;-67
2022/10/17 05:12:27;;;;;;;5.55;3.15;;;;;;;9.27;100.00;101727.81;10544747;28;20095;-67
2022/10/17 05:17:28;;;;;;;4.85;3.03;;;;;;;10.17;100.00;101885.81;10543809;28;20036;-68
2022/10/17 05:22:28;;;;;;;6.97;3.67;;;;;;;10.11;100.00;101862.44;10544082;28;20040;-67
2022/10/17 05:27:29;;;;;;;11.85;3.90;;;;;;;10.23;100.00;101877.34;10543466;28;20070;-67
2022/10/17 05:32:30;;;;;;;9.90;3.50;;;;;;;10.37;100.00;101885.03;10544229;28;20036;-67
2022/10/17 05:37:31;;;;;;;9.35;4.30;;;;;;;10.49;100.00;101888.47;10542839;28;20044;-68
2022/10/17 05:42:32;;;;;;;13.52;4.25;;;;;;;10.50;100.00;101868.94;10542540;28;20096;-67
2022/10/17 05:47:32;;;;;;;23.40;4.70;;;;;;;10.15;100.00;101805.47;10543146;28;20036;-67
2022/10/17 05:52:33;;;;;;;9.90;4.50;;;;;;;10.63;100.00;101877.53;10542001;28;20050;-67
2022/10/17 05:57:34;;;;;;;9.52;4.15;;;;;;;10.70;100.00;101886.66;10542071;28;20499;-68
2022/10/17 06:02:35;;;;;;;8.68;4.15;;;;;;;10.72;100.00;101889.19;10541475;28;20047;-68
2022/10/17 06:07:36;;;;;;;6.28;4.18;;;;;;;10.26;100.00;101816.91;10542805;28;20063;-68
2022/10/17 06:12:37;;;;;;;6.45;3.65;;;;;;;10.37;100.00;101828.41;10541803;28;20043;-67
2022/10/17 06:17:38;;;;;;;13.70;4.60;;;;;;;10.71;100.00;101887.50;10542520;28;20040;-68
2022/10/17 06:22:39;;;;;;;7.50;4.53;;;;;;;10.30;100.00;101822.78;10541635;28;20032;-67
2022/10/17 06:27:39;;;;;;;25.98;4.97;;;;;;;10.40;100.00;101831.66;10541526;28;20039;-68
2022/10/17 06:32:40;;;;;;;7.20;4.22;;;;;;;9.96;100.00;101737.13;10539575;28;20032;-68
2022/10/17 06:37:41;;;;;;;7.40;4.82;;;;;;;10.94;100.00;101899.66;10541856;28;20579;-67
2022/10/17 06:42:42;;;;;;;19.33;4.63;;;;;;;11.00;100.00;101892.97;10540337;28;20040;-67
2022/10/17 06:47:43;;;;;;;10.57;4.57;;;;;;;10.54;100.00;101803.91;10540692;28;20032;-67
2022/10/17 06:52:44;;;;;;;7.15;3.70;;;;;;;11.11;100.00;101886.72;10540015;28;20036;-67
2022/10/17 06:57:44;;;;;;;6.40;4.15;;;;;;;11.16;100.00;101881.84;10539940;28;20040;-68
2022/10/17 07:02:45;;;;;;;7.65;4.03;;;;;;;11.28;100.00;101879.94;10539457;28;20141;-67
2022/10/17 07:07:46;;;;;;;9.07;3.70;;;;;;;11.30;100.00;101885.94;10540516;28;20113;-68
2022/10/17 07:12:47;;;;;;;7.03;3.70;;;;;;;11.29;100.00;101882.44;10537966;28;20047;-67
2022/10/17 07:17:49;;;;;;;10.50;3.78;;;;;;;11.38;100.00;101876.31;10539724;28;20044;-67
2022/10/17 07:22:50;;;;;;;7.72;3.60;;;;;;;11.23;100.00;101810.31;10539283;28;20054;-68
2022/10/17 07:27:52;;;;;;;10.10;3.83;;;;;;;11.75;100.00;101865.03;10538513;28;20036;-67
2022/10/17 07:32:53;;;;;;;6.82;3.15;;;;;;;11.92;98.59;101884.84;10538374;28;20040;-68
2022/10/17 07:37:54;;;;;;;8.23;3.05;;;;;;;11.98;98.14;101875.47;10539025;28;20093;-67
2022/10/17 07:42:55;;;;;;;7.78;3.13;;;;;;;12.05;96.52;101885.41;10538743;28;20544;-67
2022/10/17 07:47:57;;;;;;;11.45;2.85;;;;;;;11.95;95.17;101875.75;10537187;28;20063;-68
2022/10/17 07:53:03;;;;;;;7.65;3.00;;;;;;;12.16;95.27;101884.44;10538248;28;20058;-67
2022/10/17 07:58:04;;;;;;;8.77;2.53;;;;;;;12.25;94.32;101880.09;10537465;28;20384;-67
2022/10/17 08:03:06;;;;;;;10.00;2.78;;;;;;;12.19;93.11;101870.81;10538236;28;20626;-67
2022/10/17 08:08:06;;;;;;;5.05;2.47;;;;;;;11.92;93.07;101804.13;10537776;28;20063;-67
2022/10/17 08:13:08;;;;;;;8.23;2.50;;;;;;;12.42;91.97;101870.53;10536715;28;20036;-68
2022/10/17 08:18:08;;;;;;;6.10;2.42;;;;;;;12.56;90.63;101875.41;10536731;28;20044;-68
2022/10/17 08:23:09;;;;;;;10.75;2.90;;;;;;;12.24;90.20;101803.81;10537515;28;20040;-69
2022/10/17 08:28:10;;;;;;;7.47;2.50;;;;;;;12.67;88.98;101861.06;10537307;28;20036;-67
2022/10/17 08:33:11;;;;;;;8.65;2.35;;;;;;;12.72;88.97;101867.66;10537502;28;20040;-67
2022/10/17 08:38:12;;;;;;;4.80;2.80;;;;;;;12.75;89.11;101870.03;10536554;28;20123;-67
2022/10/17 08:43:33;;;;;;;10.68;2.65;;;;;;;12.85;88.09;101866.50;10536505;28;20042;-68
2022/10/17 08:48:39;;;;;;;4.28;2.45;;;;;;;12.70;86.95;101853.63;10537139;28;20403;-68
2022/10/17 08:53:50;;;;;;;4.00;2.28;;;;;;;12.69;85.90;101883.94;10537837;28;20108;-68
2022/10/17 08:58:51;;;;;;;8.93;2.58;;;;;;;12.69;87.71;101897.28;10537218;28;20047;-68
2022/10/17 09:04:13;;;;;;;7.97;2.70;;;;;;;12.61;86.21;101891.81;10536681;28;20492;-67
2022/10/17 09:09:43;;;;;;;9.52;2.50;;;;;;;12.59;87.18;101908.94;10536894;28;20093;-68
2022/10/17 09:14:54;;;;;;;3.38;2.03;;;;;;;12.61;87.00;101902.47;10536725;28;20040;-68
2022/10/17 09:20:30;;;;;;;17.75;2.47;;;;;;;12.73;87.38;101912.00;10537351;28;20437;-68
2022/10/17 09:25:52;;;;;;;6.53;2.40;;;;;;;12.78;85.88;101901.75;10527829;28;20609;-68
2022/10/17 09:31:25;;;;;;;8.80;2.40;;;;;;;12.88;86.68;101909.72;10542741;28;20069;-67
2022/10/17 09:36:29;;;;;;;6.93;2.70;;;;;;;12.62;87.17;101866.81;10544029;28;20078;-68
2022/10/17 09:41:39;;;;;;;6.40;2.30;;;;;;;12.78;88.04;101895.56;10543675;28;20043;-68
2022/10/17 09:46:49;;;;;;;8.75;2.35;;;;;;;12.20;88.93;101826.38;10543168;28;20040;-68
2022/10/17 09:51:50;;;;;;;10.52;2.40;;;;;;;12.32;90.31;101866.06;10542969;28;20135;-68
2022/10/17 09:57:02;;;;;;;4.07;2.00;;;;;;;12.33;91.76;101878.41;10542204;28;20138;-68
2022/10/17 10:02:21;;;;;;;16.20;2.65;;;;;;;12.52;92.80;101903.34;10543115;28;20032;-68
2022/10/17 10:07:23;;;;;;;6.10;2.42;;;;;;;12.49;92.40;101898.28;10541971;28;20056;-68
2022/10/17 10:12:33;;;;;;;9.30;2.20;;;;;;;12.50;93.38;101890.16;10541154;28;20407;-68
2022/10/17 10:17:36;;;;;;;3.25;2.00;;;;;;;12.48;93.08;101888.63;10542146;28;20040;-68
2022/10/17 10:22:37;;;;;;;14.13;2.42;;;;;;;12.50;93.07;101870.63;10541431;28;20036;-68
2022/10/17 10:27:40;;;;;;;6.20;2.00;;;;;;;12.56;93.88;101878.06;10540997;28;20040;-69
2022/10/17 10:32:46;;;;;;;6.25;2.20;;;;;;;12.40;93.91;101828.03;10541123;28;20048;-69
2022/10/17 10:37:52;;;;;;;7.57;2.28;;;;;;;12.57;94.37;101853.94;10541164;28;20515;-68
2022/10/17 10:42:56;;;;;;;4.07;2.30;;;;;;;12.52;94.10;101864.19;10541198;28;20047;-68
2022/10/17 10:48:00;;;;;;;23.83;3.53;;;;;;;12.55;95.09;101863.06;10541412;28;20391;-69
2022/10/17 10:53:19;;;;;;;18.38;3.15;;;;;;;12.57;95.54;101850.44;10540662;28;20042;-69
2022/10/17 10:58:47;;;;;;;8.35;2.75;;;;;;;12.53;97.60;101846.38;10539757;28;20555;-69
2022/10/17 11:04:20;;;;;;;16.65;3.85;;;;;;;12.55;98.93;101852.41;10540058;28;20071;-69
2022/10/17 11:10:02;;;;;;;23.30;4.47;;;;;;;12.51;100.00;101864.34;10505504;28;20079;-69
2022/10/17 11:15:28;;;;;;;17.55;4.28;;;;;;;12.34;100.00;101853.41;10539706;28;20055;-69
2022/10/17 11:20:33;;;;;;;13.52;3.83;;;;;;;11.98;99.57;101816.88;10538954;28;20112;-69
2022/10/17 11:25:36;;;;;;;11.23;3.45;;;;;;;12.32;100.00;101889.19;10539415;28;20040;-69
2022/10/17 11:30:44;;;;;;;14.20;3.73;;;;;;;12.18;100.00;101869.16;10538810;28;20035;-69
2022/10/17 11:35:49;;;;;;;13.75;3.17;;;;;;;12.28;100.00;101893.97;10539372;28;20040;-67
2022/10/17 11:40:52;;;;;;;11.15;3.15;;;;;;;11.83;100.00;101827.06;10539820;28;20036;-67
2022/10/17 11:46:15;;;;;;;6.88;2.83;;;;;;;12.28;100.00;101911.78;10537519;28;20407;-68
2022/10/17 11:51:15;;;;;;;6.68;2.85;;;;;;;12.18;100.00;101903.78;10538155;28;20051;-68
2022/10/17 11:56:25;;;;;;;11.48;3.03;;;;;;;11.78;100.00;101848.78;10538196;28;20048;-67
2022/10/17 12:01:46;;;;;;;6.50;3.05;;;;;;;12.22;100.00;101925.66;10537628;28;20040;-68
2022/10/17 12:07:11;;;;;;;11.15;3.50;;;;;;;12.24;100.00;101937.88;10538476;28;20056;-67
2022/10/17 12:12:25;;;;;;;15.93;4.38;;;;;;;12.27;100.00;101926.94;10536636;28;20056;-67
2022/10/17 12:17:39;;;;;;;10.02;5.07;;;;;;;12.29;100.00;101929.44;10536407;28;20043;-67
2022/10/17 12:22:46;;;;;;;10.63;4.70;;;;;;;12.25;100.00;101936.88;10536520;28;20056;-67
2022/10/17 12:27:49;;;;;;;13.13;5.47;;;;;;;12.23;100.00;101944.16;10537354;28;20040;-67
2022/10/17 12:33:01;;;;;;;32.15;12.43;;;;;;;12.27;100.00;101955.41;10538142;28;20377;-69
2022/10/17 12:38:16;;;;;;;17.52;6.82;;;;;;;12.30;100.00;101955.13;10536806;28;20067;-67
2022/10/17 12:43:16;;;;;;;11.80;4.95;;;;;;;12.22;100.00;101942.47;10537373;28;20036;-69
2022/10/17 12:48:35;;;;;;;17.73;5.25;;;;;;;12.12;100.00;101920.34;10537018;28;20403;-67
2022/10/17 12:53:58;;;;;;;8.48;4.20;;;;;;;12.15;100.00;101938.69;10534566;28;20433;-67
2022/10/17 12:58:59;;;;;;;6.03;3.20;;;;;;;12.12;100.00;101938.97;10537658;28;20135;-67
2022/10/17 13:04:04;;;;;;;9.50;3.95;;;;;;;12.07;100.00;101930.56;10543374;28;20098;-68
2022/10/17 13:09:23;;;;;;;11.27;4.18;;;;;;;12.10;100.00;101939.09;10544126;28;20503;-67
2022/10/17 13:14:24;;;;;;;17.65;4.32;;;;;;;11.97;100.00;101908.41;10545145;28;20056;-68
2022/10/17 13:19:29;;;;;;;6.68;3.45;;;;;;;12.10;100.00;101927.63;10543925;28;20097;-69
2022/10/17 13:24:38;;;;;;;12.32;3.53;;;;;;;12.14;100.00;101942.31;10543762;28;20047;-68
2022/10/17 13:29:43;;;;;;;7.55;3.78;;;;;;;12.04;100.00;101941.50;10543526;28;20043;-69
2022/10/17 13:34:44;;;;;;;5.88;3.55;;;;;;;12.09;100.00;101958.75;10543938;28;20574;-68
2022/10/17 13:39:47;;;;;;;5.25;2.60;;;;;;;12.02;100.00;101954.09;10543208;28;20089;-68
2022/10/17 13:44:48;;;;;;;12.43;3.78;;;;;;;11.96;100.00;101938.66;10539758;28;20040;-67
2022/10/17 13:49:50;;;;;;;8.20;3.72;;;;;;;11.98;100.00;101952.69;10475394;28;20060;-67
2022/10/17 13:54:52;;;;;;;8.23;3.25;;;;;;;11.98;100.00;101945.53;10431399;28;20087;-67
2022/10/17 14:00:04;;;;;;;5.45;3.17;;;;;;;11.98;100.00;101956.19;10453046;28;20575;-67
2022/10/17 14:05:07;;;;;;;8.63;3.55;;;;;;;11.99;100.00;101957.03;10451954;28;20064;-68
2022/10/17 14:10:21;;;;;;;5.30;3.00;;;;;;;11.81;100.00;101920.38;10453150;28;20044;-81
2022/10/17 14:15:27;;;;;;;11.98;3.35;;;;;;;11.95;100.00;101953.81;10458030;28;20049;-80
2022/10/17 14:20:28;;;;;;;6.68;3.00;;;;;;;11.84;100.00;101941.41;10458743;28;20506;-81
2022/10/17 14:25:34;;;;;;;5.55;3.45;;;;;;;11.82;100.00;101950.53;10457013;28;20052;-80
2022/10/17 14:30:37;;;;;;;8.05;3.13;;;;;;;11.19;100.00;101861.13;10451553;28;20040;-80
2022/10/17 14:35:39;;;;;;;6.73;3.20;;;;;;;11.47;100.00;101919.06;10455732;28;20481;-82
2022/10/17 14:40:50;;;;;;;4.38;2.90;;;;;;;11.56;100.00;101945.69;10457222;28;20287;-82
2022/10/17 14:45:51;;;;;;;6.85;3.33;;;;;;;10.98;100.00;101852.38;10457523;28;20432;-75
2022/10/17 14:51:14;;;;;;;5.63;3.55;;;;;;;11.42;100.00;101930.09;10454740;28;20151;-75
2022/10/17 14:56:24;;;;;;;7.15;3.47;;;;;;;11.65;100.00;101970.66;10454618;28;20053;-76
2022/10/17 15:01:25;;;;;;;8.98;3.33;;;;;;;11.06;100.00;101886.28;10456078;28;20107;-76
2022/10/17 15:06:31;;;;;;;5.20;3.65;;;;;;;11.52;100.00;101968.25;10456941;28;20060;-76
2022/10/17 15:11:32;;;;;;;5.68;3.58;;;;;;;10.82;100.00;101874.13;10456263;28;20577;-80
2022/10/17 15:16:33;;;;;;;7.60;3.83;;;;;;;11.51;100.00;101971.03;10456056;28;20090;-76
2022/10/17 15:21:35;;;;;;;7.18;3.70;;;;;;;11.04;100.00;101901.50;10455375;28;20170;-76
2022/10/17 15:26:36;;;;;;;7.28;3.90;;;;;;;11.35;100.00;101961.72;10455444;28;20040;-76
2022/10/17 15:31:37;;;;;;;6.00;3.83;;;;;;;11.40;100.00;101964.00;10455855;28;20045;-74
2022/10/17 15:36:47;;;;;;;8.55;4.38;;;;;;;11.30;100.00;101952.44;10455438;28;20495;-79
2022/10/17 15:41:47;;;;;;;5.20;4.03;;;;;;;11.05;100.00;101904.06;10455425;28;20041;-78
2022/10/17 15:46:48;;;;;;;5.18;4.03;;;;;;;11.54;100.00;101989.38;10454779;28;20063;-80
2022/10/17 15:51:49;;;;;;;8.15;4.05;;;;;;;11.07;100.00;101907.44;10453785;28;20469;-77
2022/10/17 15:56:53;;;;;;;6.20;3.63;;;;;;;11.52;100.00;101986.88;10531065;28;20052;-83
2022/10/17 16:01:54;;;;;;;;;;;;;;;11.73;100.00;101999.28;10537388;28;20036;-79
2022/10/17 16:06:55;;;;;;;7.00;4.15;;;;;;;11.25;100.00;101931.59;10514871;28;20287;-78
2022/10/17 16:11:55;;;;;;;6.97;4.80;;;;;;;11.70;100.00;102005.72;10536536;28;20138;-80
2022/10/17 16:16:57;;;;;;;6.43;4.97;;;;;;;11.76;100.00;102001.69;10536145;28;20082;-80
2022/10/17 16:22:00;;;;;;;7.60;4.22;;;;;;;11.26;100.00;101914.63;10537483;28;20071;-78
2022/10/17 16:27:01;;;;;;;9.25;4.45;;;;;;;11.42;100.00;101930.09;10536882;28;20035;-76
2022/10/17 16:32:02;;;;;;;9.68;5.53;;;;;;;11.85;100.00;102009.72;10531589;28;20925;-75
2022/10/17 16:37:03;;;;;;;8.05;5.25;;;;;;;11.08;100.00;101874.53;10534251;28;20087;-78
2022/10/17 16:42:04;;;;;;;10.95;8.73;;;;;;;11.92;100.00;102001.19;10540464;28;20039;-74
2022/10/17 16:47:05;;;;;;;19.30;10.20;;;;;;;11.49;100.00;101925.09;10544448;28;20443;-69
2022/10/17 16:52:05;;;;;;;14.80;10.80;;;;;;;10.93;100.00;101825.34;10543416;28;20040;-72
2022/10/17 16:57:06;;;;;;;12.10;8.20;;;;;;;11.87;100.00;101991.75;10544578;28;20289;-72
2022/10/17 17:02:10;;;;;;;14.45;8.63;;;;;;;11.74;100.00;101964.53;10544778;28;20039;-72
2022/10/17 17:07:11;;;;;;;6.13;5.15;;;;;;;11.32;100.00;101898.13;10536572;28;20465;-71
2022/10/17 17:12:11;;;;;;;8.07;6.32;;;;;;;11.90;100.00;101997.81;10543754;28;20047;-71
2022/10/17 17:17:13;;;;;;;13.90;7.30;;;;;;;11.73;100.00;101972.66;10541700;28;20039;-70
2022/10/17 17:22:13;;;;;;;10.90;9.80;;;;;;;11.90;100.00;102003.13;10542985;28;20424;-68
2022/10/17 17:27:14;;;;;;;11.38;6.55;;;;;;;11.63;100.00;101965.47;10543713;28;20043;-69
2022/10/17 17:32:15;;;;;;;7.85;6.43;;;;;;;11.86;100.00;101984.75;10543639;28;20143;-71
2022/10/17 17:37:16;;;;;;;6.55;5.85;;;;;;;11.23;100.00;101875.00;10543894;28;20057;-71
2022/10/17 17:42:18;;;;;;;8.43;5.30;;;;;;;11.54;100.00;101941.47;10542305;28;20051;-72
2022/10/17 17:47:18;;;;;;;8.50;6.00;;;;;;;11.88;100.00;101995.28;10542593;28;20036;-71
2022/10/17 17:52:19;;;;;;;8.25;6.63;;;;;;;11.48;100.00;101923.38;10542847;28;20430;-71
2022/10/17 17:57:20;;;;;;;9.18;7.00;;;;;;;11.91;100.00;102012.81;10542004;28;20044;-70
2022/10/17 18:02:21;;;;;;;12.65;8.75;;;;;;;11.90;100.00;102027.09;10526250;28;20059;-70
2022/10/17 18:07:23;;;;;;;9.85;6.60;;;;;;;11.81;100.00;102007.41;10525768;28;20389;-71
2022/10/17 18:12:24;;;;;;;8.65;6.60;;;;;;;11.77;100.00;102001.53;10517700;28;20049;-71
2022/10/17 18:17:24;;;;;;;8.40;6.13;;;;;;;11.81;100.00;102018.91;10517891;28;20036;-71
2022/10/17 18:22:25;;;;;;;8.38;6.25;;;;;;;11.59;100.00;101987.16;10518487;28;20045;-73
2022/10/17 18:27:26;;;;;;;11.60;6.60;;;;;;;11.52;100.00;101988.69;10517876;28;20527;-70
2022/10/17 18:32:30;;;;;;;6.97;6.28;;;;;;;11.66;100.00;102022.91;10519381;28;20064;-71
2022/10/17 18:37:31;;;;;;;8.60;6.50;;;;;;;11.56;100.00;102000.75;10522093;28;20040;-71
2022/10/17 18:42:31;;;;;;;9.77;6.85;;;;;;;11.63;100.00;102008.03;10517500;28;20040;-72
2022/10/17 18:47:32;;;;;;;8.02;6.70;;;;;;;11.27;100.00;101953.56;10519144;28;20488;-71
2022/10/17 18:52:33;;;;;;;10.52;6.82;;;;;;;11.48;100.00;101984.59;10517501;28;20039;-72
2022/10/17 18:57:34;;;;;;;8.43;6.95;;;;;;;11.04;100.00;101920.13;10518597;28;20036;-71
2022/10/17 19:02:35;;;;;;;11.60;7.28;;;;;;;11.37;100.00;101981.06;10517125;28;20032;-71
2022/10/17 19:07:35;;;;;;;7.93;7.10;;;;;;;11.34;100.00;101976.00;10514651;28;20048;-71
2022/10/17 19:12:36;;;;;;;7.28;6.57;;;;;;;11.42;100.00;101988.63;10520211;28;20142;-71
2022/10/17 19:17:37;;;;;;;12.52;7.05;;;;;;;10.71;100.00;101876.88;10521811;28;20106;-71
2022/10/17 19:22:38;;;;;;;9.85;6.78;;;;;;;11.43;100.00;102001.81;10538126;28;20047;-70
2022/10/17 19:27:39;;;;;;;9.15;6.72;;;;;;;11.36;100.00;102003.31;10539423;28;20043;-69
2022/10/17 19:32:39;;;;;;;9.35;6.82;;;;;;;11.28;100.00;101997.81;10539207;28;20040;-73
2022/10/17 19:37:40;;;;;;;8.93;5.40;;;;;;;10.52;100.00;101875.75;10538228;28;20047;-71
2022/10/17 19:42:41;;;;;;;7.97;5.32;;;;;;;10.78;100.00;101917.06;10538006;28;20131;-70
2022/10/17 19:47:42;;;;;;;5.13;4.63;;;;;;;11.23;100.00;102016.00;10538602;28;20040;-69
2022/10/17 19:52:42;;;;;;;7.45;4.72;;;;;;;10.57;100.00;101895.81;10537971;28;20518;-69
2022/10/17 19:57:43;;;;;;;4.90;4.13;;;;;;;10.49;100.00;101881.34;10537008;28;20061;-70
2022/10/17 20:02:44;;;;;;;4.68;3.83;;;;;;;10.99;100.00;101975.53;10534841;28;20130;-70
2022/10/17 20:07:45;;;;;;;4.43;3.58;;;;;;;10.92;100.00;101956.63;10538446;28;20504;-70
2022/10/17 20:12:46;;;;;;;5.30;3.90;;;;;;;10.80;100.00;101942.53;10537392;28;20044;-69
2022/10/17 20:17:47;;;;;;;7.90;4.40;;;;;;;10.93;100.00;101959.13;10537359;28;20051;-70
2022/10/17 20:22:48;;;;;;;6.22;4.03;;;;;;;10.35;100.00;101868.41;10537240;28;20169;-70
2022/10/17 20:27:49;;;;;;;6.35;4.95;;;;;;;10.66;100.00;101905.66;10536735;28;20127;-69
2022/10/17 20:32:49;;;;;;;7.63;5.40;;;;;;;10.88;100.00;101928.59;10537404;28;20043;-69
2022/10/17 20:37:51;;;;;;;7.40;4.50;;;;;;;11.09;100.00;101963.13;10537266;28;20048;-70
2022/10/17 20:42:52;;;;;;;6.57;5.72;;;;;;;10.61;100.00;101860.03;10538312;28;20043;-70
2022/10/17 20:47:53;;;;;;;8.25;6.47;;;;;;;11.20;100.00;101963.06;10537092;28;20040;-69
2022/10/17 20:52:54;;;;;;;8.50;6.90;;;;;;;10.99;100.00;101917.88;10536621;28;20036;-69
2022/10/17 20:57:55;;;;;;;6.97;5.63;;;;;;;11.03;100.00;101902.50;10535092;28;20051;-70
2022/10/17 21:02:57;;;;;;;9.23;6.75;;;;;;;11.13;100.00;101922.00;10536151;28;20036;-69
2022/10/17 21:08:01;;;;;;;9.10;5.90;;;;;;;10.87;100.00;101871.91;10535792;28;20067;-70
2022/10/17 21:13:02;;;;;;;8.70;6.03;;;;;;;10.84;100.00;101871.34;10536852;28;20035;-70
2022/10/17 21:18:03;;;;;;;7.85;5.60;;;;;;;11.23;100.00;101944.16;10535838;28;20512;-69
2022/10/17 21:23:04;;;;;;;5.18;4.68;;;;;;;11.13;100.00;101970.72;10543681;28;20036;-70
2022/10/17 21:28:04;;;;;;;6.38;4.70;;;;;;;10.45;100.00;101860.50;10545181;28;20066;-69
2022/10/17 21:33:05;;;;;;;6.00;4.47;;;;;;;11.06;100.00;101971.38;10543298;28;20047;-70
2022/10/17 21:38:06;;;;;;;4.30;3.38;;;;;;;10.72;100.00;101908.63;10543866;28;20663;-70
2022/10/17 21:43:07;;;;;;;4.15;3.63;;;;;;;10.36;100.00;101846.16;10543198;28;20062;-70
2022/10/17 21:48:07;;;;;;;4.88;3.63;;;;;;;10.80;100.00;101926.59;10543278;28;20036;-70
2022/10/17 21:53:08;;;;;;;4.45;3.33;;;;;;;10.68;100.00;101911.69;10543038;28;20035;-70
2022/10/17 21:58:09;;;;;;;4.38;3.55;;;;;;;10.74;100.00;101940.41;10541246;28;20515;-70
2022/10/17 22:03:11;;;;;;;8.35;3.40;;;;;;;10.65;100.00;101926.09;10541564;28;20483;-70
2022/10/17 22:08:12;;;;;;;4.57;3.70;;;;;;;10.74;100.00;101951.88;10542062;28;20052;-69
2022/10/17 22:13:13;;;;;;;5.20;4.13;;;;;;;10.74;100.00;101943.06;10542313;28;20403;-69
2022/10/17 22:18:14;;;;;;;5.03;4.25;;;;;;;10.60;100.00;101932.75;10540590;28;20040;-69
2022/10/17 22:23:14;;;;;;;6.70;3.58;;;;;;;10.74;100.00;101927.97;10542079;28;20078;-69
2022/10/17 22:28:15;;;;;;;5.15;3.88;;;;;;;10.40;100.00;101891.91;10541658;28;20036;-70
2022/10/17 22:33:16;;;;;;;4.55;3.90;;;;;;;10.20;100.00;101861.66;10541512;28;20127;-70
2022/10/17 22:38:17;;;;;;;4.70;3.97;;;;;;;10.88;100.00;101963.97;10541393;28;20047;-69
2022/10/17 22:43:18;;;;;;;7.68;4.32;;;;;;;10.66;100.00;101941.03;10540537;28;20477;-70
2022/10/17 22:48:19;;;;;;;4.30;3.47;;;;;;;10.70;100.00;101962.88;10540730;28;20054;-71
2022/10/17 22:53:25;;;;;;;3.88;3.15;;;;;;;10.61;100.00;101953.88;10541023;28;20050;-70
2022/10/17 22:58:28;;;;;;;4.28;3.00;;;;;;;10.58;100.00;101954.13;10539743;28;20496;-70
2022/10/17 23:03:30;;;;;;;4.13;3.10;;;;;;;10.49;100.00;101937.13;10540214;28;20044;-69
2022/10/17 23:08:31;;;;;;;8.00;4.13;;;;;;;10.49;100.00;101937.13;10539142;28;20083;-69